createdAt,value
2017-07-10T00:00:02.832Z,69.15
2017-07-10T00:01:18.528Z,69.15
2017-07-10T00:02:33.998Z,69.73
2017-07-10T00:03:49.453Z,69.83
2017-07-10T00:05:04.898Z,70.02
2017-07-10T00:06:20.641Z,70.41
2017-07-10T00:07:36.740Z,70.31
2017-07-10T00:08:50.832Z,70.41
2017-07-10T00:10:04.983Z,69.73
2017-07-10T00:11:20.685Z,69.93
2017-07-10T00:12:33.520Z,69.25
2017-07-10T00:13:48.959Z,69.15
2017-07-10T00:15:04.421Z,68.48
2017-07-10T00:16:20.141Z,68.77
2017-07-10T00:17:35.610Z,68.48
2017-07-10T00:18:51.220Z,68.48
2017-07-10T00:20:06.817Z,68.29
2017-07-10T00:21:22.550Z,68.19
2017-07-10T00:22:37.966Z,67.9
2017-07-10T00:23:53.664Z,68.19
2017-07-10T00:25:09.129Z,67.42
2017-07-10T00:26:24.834Z,67.23
2017-07-10T00:27:40.291Z,66.75
2017-07-10T00:28:55.815Z,67.23
2017-07-10T00:30:11.264Z,68.1
2017-07-10T00:31:27.122Z,67.81
2017-07-10T00:32:42.610Z,67.9
2017-07-10T00:33:58.038Z,67.81
2017-07-10T00:35:13.481Z,68.29
2017-07-10T00:36:28.809Z,68.38
2017-07-10T00:37:44.257Z,68.58
2017-07-10T00:38:59.708Z,68.58
2017-07-10T00:40:15.211Z,68.48
2017-07-10T00:41:30.909Z,68.29
2017-07-10T00:42:46.525Z,68.48
2017-07-10T00:44:02.203Z,68.1
2017-07-10T00:45:17.636Z,68.48
2017-07-10T00:46:33.382Z,68.48
2017-07-10T00:47:48.838Z,68.77
2017-07-10T00:49:02.754Z,68.58
2017-07-10T00:50:18.251Z,68
2017-07-10T00:51:33.917Z,68.19
2017-07-10T00:52:49.346Z,67.81
2017-07-10T00:54:04.774Z,67.9
2017-07-10T00:55:20.239Z,67.61
2017-07-10T00:56:35.936Z,67.23
2017-07-10T00:57:51.395Z,67.33
2017-07-10T00:59:06.961Z,66.75
2017-07-10T01:00:22.475Z,66.85
2017-07-10T01:01:38.252Z,66.94
2017-07-10T01:02:52.370Z,67.33
2017-07-10T01:04:07.843Z,67.33
2017-07-10T01:05:22.931Z,67.33
2017-07-10T01:06:38.658Z,67.33
2017-07-10T01:07:53.775Z,67.81
2017-07-10T01:09:09.221Z,67.33
2017-07-10T01:10:24.676Z,67.33
2017-07-10T01:11:40.340Z,67.52
2017-07-10T01:12:55.389Z,67.33
2017-07-10T01:14:10.636Z,67.52
2017-07-10T01:15:25.855Z,67.03
2017-07-10T01:16:41.589Z,67.03
2017-07-10T01:17:57.043Z,66.85
2017-07-10T01:19:11.200Z,66.36
2017-07-10T01:20:26.802Z,66.46
2017-07-10T01:21:41.152Z,66.46
2017-07-10T01:23:10.151Z,66.75
2017-07-10T01:24:25.609Z,66.36
2017-07-10T01:25:41.247Z,66.46
2017-07-10T01:26:55.708Z,65.98
2017-07-10T01:28:11.126Z,66.36
2017-07-10T01:29:26.492Z,65.98
2017-07-10T01:30:40.653Z,65.98
2017-07-10T01:31:55.058Z,65.69
2017-07-10T01:33:10.811Z,65.59
2017-07-10T01:34:26.381Z,65.3
2017-07-10T01:35:41.804Z,65.78
2017-07-10T01:36:57.510Z,65.78
2017-07-10T01:38:11.662Z,65.2
2017-07-10T01:39:27.023Z,65.3
2017-07-10T01:40:41.193Z,65.5
2017-07-10T01:41:56.661Z,65.3
2017-07-10T01:43:11.053Z,64.82
2017-07-10T01:44:25.205Z,65.3
2017-07-10T01:45:40.662Z,64.92
2017-07-10T01:46:56.121Z,65.11
2017-07-10T01:48:11.823Z,65.88
2017-07-10T01:49:27.294Z,65.5
2017-07-10T01:50:42.733Z,65.98
2017-07-10T01:51:58.184Z,65.3
2017-07-10T01:53:13.864Z,65.2
2017-07-10T01:54:29.337Z,65.2
2017-07-10T01:55:44.803Z,65.2
2017-07-10T01:57:00.392Z,65.11
2017-07-10T01:58:16.287Z,65.69
2017-07-10T01:59:31.421Z,65.4
2017-07-10T02:00:46.878Z,65.3
2017-07-10T02:02:02.363Z,65.3
2017-07-10T02:03:18.028Z,65.11
2017-07-10T02:04:32.179Z,65.5
2017-07-10T02:05:47.809Z,64.82
2017-07-10T02:07:03.236Z,65.08
2017-07-10T02:08:18.927Z,64.82
2017-07-10T02:09:34.378Z,64.53
2017-07-10T02:10:48.547Z,65.2
2017-07-10T02:12:04.028Z,65.5
2017-07-10T02:13:19.728Z,66.27
2017-07-10T02:14:35.172Z,66.81
2017-07-10T02:15:50.685Z,66.81
2017-07-10T02:17:06.101Z,66.42
2017-07-10T02:18:21.978Z,66.24
2017-07-10T02:19:37.398Z,66.24
2017-07-10T02:20:52.845Z,66.52
2017-07-10T02:22:08.306Z,66.14
2017-07-10T02:23:24.057Z,66.04
2017-07-10T02:24:39.337Z,66.14
2017-07-10T02:25:54.743Z,65.94
2017-07-10T02:27:10.185Z,65.66
2017-07-10T02:28:25.885Z,65.94
2017-07-10T02:29:40.983Z,65.75
2017-07-10T02:30:56.449Z,65.37
2017-07-10T02:32:11.899Z,65.66
2017-07-10T02:33:27.754Z,65.94
2017-07-10T02:34:43.174Z,65.56
2017-07-10T02:35:58.596Z,65.37
2017-07-10T02:37:14.001Z,65.46
2017-07-10T02:38:29.649Z,65.75
2017-07-10T02:39:45.114Z,65.75
2017-07-10T02:41:00.567Z,65.85
2017-07-10T02:42:16.004Z,65.85
2017-07-10T02:43:31.681Z,65.94
2017-07-10T02:44:47.149Z,66.33
2017-07-10T02:46:02.592Z,66.42
2017-07-10T02:47:16.770Z,65.94
2017-07-10T02:48:32.422Z,65.85
2017-07-10T02:49:47.857Z,65.66
2017-07-10T02:51:33.832Z,65.85
2017-07-10T02:52:49.566Z,66.24
2017-07-10T02:54:05.046Z,66.24
2017-07-10T02:55:20.556Z,66.42
2017-07-10T02:56:35.982Z,66.14
2017-07-10T02:57:51.617Z,66.52
2017-07-10T02:59:07.140Z,66.42
2017-07-10T03:00:22.599Z,66.33
2017-07-10T03:01:38.050Z,66.33
2017-07-10T03:02:53.744Z,66.42
2017-07-10T03:04:09.161Z,66.71
2017-07-10T03:05:24.558Z,66.81
2017-07-10T03:06:39.948Z,66.42
2017-07-10T03:07:55.674Z,66.14
2017-07-10T03:09:11.094Z,66.1
2017-07-10T03:10:26.804Z,66.39
2017-07-10T03:11:42.406Z,66.81
2017-07-10T03:12:58.128Z,66.81
2017-07-10T03:14:13.752Z,66.81
2017-07-10T03:15:27.893Z,66.97
2017-07-10T03:16:43.274Z,66.68
2017-07-10T03:17:58.956Z,66.71
2017-07-10T03:19:14.453Z,66.71
2017-07-10T03:20:29.886Z,67.26
2017-07-10T03:22:16.153Z,67.19
2017-07-10T03:23:31.846Z,67.35
2017-07-10T03:24:47.315Z,67.26
2017-07-10T03:26:02.952Z,67.35
2017-07-10T03:27:18.392Z,67.55
2017-07-10T03:28:34.066Z,67.74
2017-07-10T03:29:49.162Z,67.55
2017-07-10T03:31:04.836Z,67.74
2017-07-10T03:32:20.315Z,68.13
2017-07-10T03:33:35.997Z,68.22
2017-07-10T03:34:51.414Z,68.03
2017-07-10T03:36:06.859Z,67.93
2017-07-10T03:37:22.309Z,68.13
2017-07-10T03:38:38.023Z,68.41
2017-07-10T03:39:53.455Z,68.51
2017-07-10T03:41:08.927Z,68.51
2017-07-10T03:42:24.365Z,68.41
2017-07-10T03:43:40.044Z,68.51
2017-07-10T03:44:55.734Z,68.7
2017-07-10T03:46:11.162Z,68.41
2017-07-10T03:47:26.603Z,68.51
2017-07-10T03:50:11.536Z,68.51
2017-07-10T03:51:27.006Z,68.51
2017-07-10T03:52:42.416Z,68.51
2017-07-10T03:53:58.115Z,68.6
2017-07-10T03:55:13.620Z,68.99
2017-07-10T03:56:29.392Z,69.18
2017-07-10T03:57:44.928Z,69.18
2017-07-10T03:59:00.765Z,69.28
2017-07-10T04:00:16.195Z,68.8
2017-07-10T04:01:31.631Z,69.47
2017-07-10T04:02:47.081Z,69.47
2017-07-10T04:04:01.444Z,69.38
2017-07-10T04:05:16.889Z,69.76
2017-07-10T04:06:32.559Z,69.57
2017-07-10T04:07:48.021Z,69.38
2017-07-10T04:09:03.696Z,69.85
2017-07-10T04:10:19.348Z,70.15
2017-07-10T04:11:34.836Z,69.76
2017-07-10T04:12:50.255Z,69.76
2017-07-10T04:14:05.995Z,69.85
2017-07-10T04:15:21.445Z,69.95
2017-07-10T04:16:36.915Z,69.95
2017-07-10T04:17:52.362Z,70.34
2017-07-10T04:19:08.137Z,70.24
2017-07-10T04:20:23.592Z,70.24
2017-07-10T04:21:39.043Z,70.24
2017-07-10T04:22:54.506Z,70.24
2017-07-10T04:24:10.163Z,70.15
2017-07-10T04:25:25.686Z,70.15
2017-07-10T04:26:41.177Z,70.24
2017-07-10T04:27:56.607Z,70.24
2017-07-10T04:29:12.274Z,70.24
2017-07-10T04:30:27.708Z,70.15
2017-07-10T04:31:43.342Z,70.15
2017-07-10T04:32:58.778Z,70.15
2017-07-10T04:34:14.157Z,70.05
2017-07-10T04:35:28.354Z,70.62
2017-07-10T04:36:43.769Z,70.62
2017-07-10T04:37:59.221Z,70.62
2017-07-10T04:39:15.063Z,70.53
2017-07-10T04:40:30.488Z,70.53
2017-07-10T04:41:45.884Z,70.62
2017-07-10T04:43:01.343Z,70.15
2017-07-10T04:44:17.058Z,70.24
2017-07-10T04:45:31.185Z,69.95
2017-07-10T04:46:46.651Z,70.15
2017-07-10T04:48:02.341Z,70.24
2017-07-10T04:49:18.060Z,70.53
2017-07-10T04:50:33.546Z,70.53
2017-07-10T04:51:49.185Z,70.72
2017-07-10T04:53:04.655Z,70.43
2017-07-10T04:54:20.346Z,70.05
2017-07-10T04:55:35.746Z,70.34
2017-07-10T04:56:50.810Z,70.15
2017-07-10T04:58:05.141Z,70.24
2017-07-10T04:59:19.515Z,70.05
2017-07-10T05:00:35.021Z,70.24
2017-07-10T05:01:50.651Z,69.95
2017-07-10T05:03:06.098Z,70.15
2017-07-10T05:04:21.744Z,69.85
2017-07-10T05:05:36.911Z,69.85
2017-07-10T05:06:52.372Z,69.95
2017-07-10T05:08:06.355Z,70.15
2017-07-10T05:09:22.239Z,69.99
2017-07-10T05:10:36.250Z,69.99
2017-07-10T05:11:51.755Z,69.85
2017-07-10T05:13:07.392Z,69.99
2017-07-10T05:14:23.078Z,69.79
2017-07-10T05:15:38.528Z,69.6
2017-07-10T05:16:53.991Z,69.51
2017-07-10T05:18:09.481Z,69.79
2017-07-10T05:19:25.173Z,69.99
2017-07-10T05:20:39.467Z,69.79
2017-07-10T05:21:54.946Z,69.79
2017-07-10T05:23:10.387Z,69.89
2017-07-10T05:24:26.081Z,70.28
2017-07-10T05:25:41.563Z,70.24
2017-07-10T05:26:56.987Z,70.47
2017-07-10T05:28:12.639Z,70.47
2017-07-10T05:29:27.060Z,70.53
2017-07-10T05:30:41.109Z,70.66
2017-07-10T05:31:56.909Z,70.56
2017-07-10T05:33:12.298Z,70.24
2017-07-10T05:34:28.056Z,69.99
2017-07-10T05:35:43.474Z,70.28
2017-07-10T05:36:58.974Z,70.09
2017-07-10T05:38:14.385Z,70.24
2017-07-10T05:39:30.032Z,70.56
2017-07-10T05:40:45.492Z,70.53
2017-07-10T05:42:01.017Z,70.62
2017-07-10T05:43:15.144Z,70.43
2017-07-10T05:44:30.860Z,70.53
2017-07-10T05:45:46.311Z,70.24
2017-07-10T05:47:01.393Z,70.62
2017-07-10T05:48:17.066Z,70.72
2017-07-10T05:49:32.769Z,71.2
2017-07-10T05:50:48.247Z,71.14
2017-07-10T05:52:03.647Z,70.43
2017-07-10T05:53:19.100Z,70.56
2017-07-10T05:54:34.797Z,70.66
2017-07-10T05:55:50.263Z,70.76
2017-07-10T05:57:05.714Z,70.56
2017-07-10T05:58:21.132Z,70.47
2017-07-10T05:59:36.888Z,70.86
2017-07-10T06:00:51.039Z,70.82
2017-07-10T06:02:05.055Z,70.86
2017-07-10T06:03:20.160Z,70.62
2017-07-10T06:04:35.612Z,70.82
2017-07-10T06:05:51.365Z,70.72
2017-07-10T06:07:06.815Z,70.62
2017-07-10T06:08:20.862Z,70.62
2017-07-10T06:09:36.410Z,70.72
2017-07-10T06:10:52.113Z,70.62
2017-07-10T06:12:07.567Z,71.11
2017-07-10T06:13:23.091Z,70.92
2017-07-10T06:14:37.201Z,71.3
2017-07-10T06:15:51.526Z,71.49
2017-07-10T06:17:07.002Z,71.49
2017-07-10T06:18:22.436Z,71.69
2017-07-10T06:19:36.596Z,71.69
2017-07-10T06:20:52.315Z,71.78
2017-07-10T06:22:07.427Z,72.26
2017-07-10T06:23:22.849Z,72.07
2017-07-10T06:24:38.273Z,72.74
2017-07-10T06:25:53.938Z,72.26
2017-07-10T06:27:09.356Z,72.55
2017-07-10T06:28:24.769Z,72.55
2017-07-10T06:29:38.920Z,72.59
2017-07-10T06:30:54.642Z,73.07
2017-07-10T06:32:10.104Z,73.61
2017-07-10T06:33:25.512Z,72.74
2017-07-10T06:34:40.927Z,73.84
2017-07-10T06:35:56.662Z,73.16
2017-07-10T06:37:12.093Z,73.71
2017-07-10T06:38:26.194Z,73.71
2017-07-10T06:39:41.705Z,73.84
2017-07-10T06:40:57.371Z,73.8
2017-07-10T06:42:13.111Z,73.84
2017-07-10T06:43:28.551Z,74.03
2017-07-10T06:44:43.994Z,74.19
2017-07-10T06:45:59.848Z,74.09
2017-07-10T06:47:15.526Z,74.09
2017-07-10T06:48:30.988Z,74.57
2017-07-10T06:49:46.439Z,74.38
2017-07-10T06:51:01.776Z,74.67
2017-07-10T06:52:17.227Z,74.09
2017-07-10T06:53:32.688Z,74.57
2017-07-10T06:54:48.126Z,74.38
2017-07-10T06:56:03.417Z,74.29
2017-07-10T06:57:18.891Z,74.29
2017-07-10T06:58:33.038Z,75.15
2017-07-10T06:59:48.515Z,75.44
2017-07-10T07:01:04.364Z,75.24
2017-07-10T07:02:19.872Z,74.76
2017-07-10T07:03:35.300Z,75.24
2017-07-10T07:04:50.836Z,74.67
2017-07-10T07:06:06.613Z,75.44
2017-07-10T07:07:22.065Z,74.96
2017-07-10T07:08:37.454Z,75.28
2017-07-10T07:09:52.902Z,75.28
2017-07-10T07:11:08.610Z,74.9
2017-07-10T07:12:24.062Z,74.9
2017-07-10T07:13:39.756Z,74.41
2017-07-10T07:14:55.209Z,74.51
2017-07-10T07:16:09.607Z,73.94
2017-07-10T07:17:25.104Z,74.32
2017-07-10T07:18:39.125Z,74.32
2017-07-10T07:19:53.762Z,74.51
2017-07-10T07:21:09.760Z,74.51
2017-07-10T07:22:25.405Z,74.22
2017-07-10T07:23:40.869Z,74.61
2017-07-10T07:24:53.554Z,74.51
2017-07-10T07:26:09.176Z,74.41
2017-07-10T07:27:24.604Z,74.99
2017-07-10T07:28:40.104Z,74.99
2017-07-10T07:29:55.563Z,75.19
2017-07-10T07:31:09.773Z,74.99
2017-07-10T07:32:23.907Z,75.48
2017-07-10T07:33:39.364Z,75.48
2017-07-10T07:34:55.054Z,75.38
2017-07-10T07:36:10.728Z,75.48
2017-07-10T07:37:26.214Z,75.19
2017-07-10T07:38:41.685Z,75.51
2017-07-10T07:39:57.391Z,74.55
2017-07-10T07:41:13.123Z,74.65
2017-07-10T07:42:28.574Z,74.55
2017-07-10T07:43:43.995Z,74.36
2017-07-10T07:44:59.116Z,74.55
2017-07-10T07:46:13.517Z,75.13
2017-07-10T07:47:27.768Z,74.36
2017-07-10T07:48:43.226Z,74.55
2017-07-10T07:49:58.664Z,74.36
2017-07-10T07:51:14.366Z,74.36
2017-07-10T07:52:27.075Z,74.2
2017-07-10T07:53:42.541Z,74.2
2017-07-10T07:54:58.006Z,74.16
2017-07-10T07:56:13.564Z,74.1
2017-07-10T07:57:29.268Z,74.1
2017-07-10T07:58:44.852Z,74.07
2017-07-10T08:00:00.348Z,74.01
2017-07-10T08:01:15.785Z,73.91
2017-07-10T08:02:31.472Z,73.72
2017-07-10T08:03:45.611Z,73.24
2017-07-10T08:04:59.783Z,73.43
2017-07-10T08:06:15.632Z,73.05
2017-07-10T08:07:31.488Z,72.95
2017-07-10T08:08:46.218Z,73.14
2017-07-10T08:10:01.684Z,72.85
2017-07-10T08:11:17.148Z,72.5
2017-07-10T08:12:32.961Z,72.5
2017-07-10T08:13:48.396Z,72.31
2017-07-10T08:15:03.882Z,71.92
2017-07-10T08:16:19.549Z,71.92
2017-07-10T08:17:34.900Z,71.64
2017-07-10T08:18:50.348Z,71.83
2017-07-10T08:20:05.819Z,72.02
2017-07-10T08:21:21.275Z,72.31
2017-07-10T08:22:36.980Z,71.83
2017-07-10T08:23:52.755Z,71.54
2017-07-10T08:25:08.188Z,71.73
2017-07-10T08:26:21.024Z,71.73
2017-07-10T08:27:36.819Z,71.83
2017-07-10T08:28:52.371Z,71.73
2017-07-10T08:30:07.786Z,71.73
2017-07-10T08:31:23.449Z,72.31
2017-07-10T08:32:39.092Z,72.08
2017-07-10T08:33:54.535Z,72.31
2017-07-10T08:35:09.994Z,72.31
2017-07-10T08:36:25.653Z,72.85
2017-07-10T08:37:41.666Z,72.41
2017-07-10T08:38:57.096Z,72.41
2017-07-10T08:40:11.222Z,72.41
2017-07-10T08:41:26.744Z,72.25
2017-07-10T08:42:42.456Z,71.96
2017-07-10T08:43:57.948Z,71.67
2017-07-10T08:45:13.412Z,71.77
2017-07-10T08:46:29.023Z,71.67
2017-07-10T08:47:44.704Z,71.38
2017-07-10T08:49:00.192Z,71.48
2017-07-10T08:50:15.666Z,71.77
2017-07-10T08:51:31.110Z,71.77
2017-07-10T08:52:46.835Z,71.67
2017-07-10T08:54:02.256Z,71.67
2017-07-10T08:55:17.892Z,71.58
2017-07-10T08:56:33.352Z,71.58
2017-07-10T08:57:49.107Z,72.06
2017-07-10T08:59:04.532Z,71.28
2017-07-10T09:00:19.957Z,71.38
2017-07-10T09:01:35.378Z,71.77
2017-07-10T09:02:51.285Z,71.77
2017-07-10T09:04:06.724Z,71.67
2017-07-10T09:05:22.210Z,71.77
2017-07-10T09:06:37.747Z,71.86
2017-07-10T09:07:53.485Z,71.67
2017-07-10T09:09:08.970Z,71.38
2017-07-10T09:10:24.415Z,72.06
2017-07-10T09:11:39.837Z,71.86
2017-07-10T09:12:55.711Z,71.96
2017-07-10T09:14:11.260Z,71.48
2017-07-10T09:15:26.714Z,71.19
2017-07-10T09:16:42.170Z,71.22
2017-07-10T09:17:57.520Z,70.94
2017-07-10T09:19:11.697Z,71.22
2017-07-10T09:20:27.233Z,71.12
2017-07-10T09:21:42.687Z,71.12
2017-07-10T09:22:58.697Z,71.32
2017-07-10T09:24:14.312Z,71.09
2017-07-10T09:25:29.816Z,71.03
2017-07-10T09:26:43.804Z,71.19
2017-07-10T09:27:57.985Z,71.42
2017-07-10T09:29:13.433Z,71.32
2017-07-10T09:30:27.565Z,71.12
2017-07-10T09:31:41.888Z,71.32
2017-07-10T09:32:57.734Z,71.03
2017-07-10T09:34:13.165Z,70.78
2017-07-10T09:35:28.716Z,70.29
2017-07-10T09:36:43.072Z,69.74
2017-07-10T09:37:58.751Z,69.36
2017-07-10T09:39:14.200Z,69.2
2017-07-10T09:40:43.132Z,68.82
2017-07-10T09:41:58.571Z,68.56
2017-07-10T09:43:14.232Z,68.95
2017-07-10T09:45:00.537Z,68.3
2017-07-10T09:46:15.986Z,67.63
2017-07-10T09:47:31.064Z,67.21
2017-07-10T09:48:46.960Z,66.24
2017-07-10T09:50:15.978Z,66.37
2017-07-10T09:51:31.735Z,65.3
2017-07-10T09:52:47.221Z,65.14
2017-07-10T09:54:02.934Z,64.65
2017-07-10T09:55:18.523Z,63.2
2017-07-10T09:56:34.006Z,62.82
2017-07-10T09:57:49.439Z,62.91
2017-07-10T09:59:05.335Z,61.19
2017-07-10T10:00:19.589Z,61.1
2017-07-10T10:01:35.067Z,60.91
2017-07-10T10:02:50.781Z,61.1
2017-07-10T10:04:05.170Z,61
2017-07-10T10:05:20.631Z,61.58
2017-07-10T10:06:36.121Z,61.19
2017-07-10T10:07:50.338Z,61.19
2017-07-10T10:09:06.057Z,61.19
2017-07-10T10:10:21.548Z,61.29
2017-07-10T10:11:37.031Z,61.29
2017-07-10T10:12:52.465Z,60.71
2017-07-10T10:14:08.379Z,60.91
2017-07-10T10:15:23.855Z,61.29
2017-07-10T10:16:39.395Z,60.71
2017-07-10T10:17:54.877Z,60.91
2017-07-10T10:19:09.261Z,60.61
2017-07-10T10:20:24.928Z,60.35
2017-07-10T10:21:40.515Z,59.87
2017-07-10T10:22:56.137Z,59.61
2017-07-10T10:24:12.033Z,59.44
2017-07-10T10:25:27.450Z,59.34
2017-07-10T10:26:42.561Z,59.05
2017-07-10T10:27:58.251Z,58.11
2017-07-10T10:29:13.952Z,57.92
2017-07-10T10:30:29.445Z,58.14
2017-07-10T10:31:44.938Z,57.65
2017-07-10T10:33:00.396Z,57.36
2017-07-10T10:34:16.177Z,57.17
2017-07-10T10:35:31.732Z,56.2
2017-07-10T10:36:47.176Z,55.74
2017-07-10T10:38:02.688Z,55.44
2017-07-10T10:39:18.500Z,55.74
2017-07-10T10:40:34.021Z,56.12
2017-07-10T10:41:49.500Z,56.2
2017-07-10T10:43:04.974Z,56.97
2017-07-10T10:44:19.307Z,57.53
2017-07-10T10:45:34.764Z,57.53
2017-07-10T10:46:50.198Z,57.69
2017-07-10T10:48:04.358Z,57.98
2017-07-10T10:49:20.074Z,58.28
2017-07-10T10:50:35.584Z,58.44
2017-07-10T10:51:51.056Z,58.64
2017-07-10T10:53:06.512Z,59.22
2017-07-10T10:54:22.234Z,59.67
2017-07-10T10:55:36.398Z,59.87
2017-07-10T10:56:51.456Z,60.42
2017-07-10T10:58:07.082Z,60.91
2017-07-10T10:59:21.296Z,61.26
2017-07-10T11:00:37.006Z,61.55
2017-07-10T11:01:51.143Z,62.52
2017-07-10T11:03:06.641Z,62.49
2017-07-10T11:04:22.111Z,63.37
2017-07-10T11:05:37.776Z,63.27
2017-07-10T11:06:53.194Z,64.14
2017-07-10T11:08:08.293Z,64.14
2017-07-10T11:09:23.790Z,64.04
2017-07-10T11:10:39.469Z,64.04
2017-07-10T11:11:55.177Z,63.98
2017-07-10T11:13:10.640Z,63.69
2017-07-10T11:14:26.135Z,63.59
2017-07-10T11:15:41.868Z,63.72
2017-07-10T11:16:57.601Z,63.33
2017-07-10T11:18:13.043Z,62.55
2017-07-10T11:19:26.028Z,62.29
2017-07-10T11:20:41.842Z,61.55
2017-07-10T11:21:57.283Z,61.07
2017-07-10T11:23:11.290Z,61.19
2017-07-10T11:24:26.773Z,60.74
2017-07-10T11:25:42.499Z,60.25
2017-07-10T11:26:57.973Z,60.05
2017-07-10T11:28:13.416Z,60.05
2017-07-10T11:29:27.569Z,60.05
2017-07-10T11:30:43.500Z,59.76
2017-07-10T11:31:58.984Z,59.95
2017-07-10T11:33:28.059Z,60.05
2017-07-10T11:34:43.852Z,60.05
2017-07-10T11:35:59.579Z,60.18
2017-07-10T11:37:13.907Z,59.21
2017-07-10T11:38:29.353Z,59.53
2017-07-10T11:39:45.090Z,59.11
2017-07-10T11:40:59.159Z,58.75
2017-07-10T11:42:14.693Z,58.82
2017-07-10T11:43:30.208Z,58.56
2017-07-10T11:44:45.942Z,58.62
2017-07-10T11:46:01.404Z,58.92
2017-07-10T11:47:17.016Z,59.11
2017-07-10T11:48:32.511Z,59.01
2017-07-10T11:49:48.274Z,59.01
2017-07-10T11:51:04.019Z,59.31
2017-07-10T11:52:19.495Z,59.01
2017-07-10T11:53:34.989Z,59.21
2017-07-10T11:54:50.771Z,58.72
2017-07-10T11:56:06.428Z,59.01
2017-07-10T11:57:21.895Z,59.5
2017-07-10T11:58:37.367Z,59.18
2017-07-10T11:59:53.147Z,59.57
2017-07-10T12:01:08.614Z,59.47
2017-07-10T12:02:22.779Z,59.76
2017-07-10T12:03:38.436Z,59.95
2017-07-10T12:04:52.847Z,59.86
2017-07-10T12:06:07.016Z,59.5
2017-07-10T12:07:22.490Z,58.82
2017-07-10T12:08:38.316Z,59.11
2017-07-10T12:09:54.052Z,58.36
2017-07-10T12:11:09.514Z,58.17
2017-07-10T12:12:24.971Z,57.87
2017-07-10T12:13:40.500Z,58
2017-07-10T12:14:56.266Z,58.26
2017-07-10T12:16:11.763Z,58.17
2017-07-10T12:17:27.216Z,57.97
2017-07-10T12:18:43.125Z,58.17
2017-07-10T12:19:58.824Z,58.92
2017-07-10T12:21:14.381Z,59.41
2017-07-10T12:22:29.897Z,59.76
2017-07-10T12:23:45.543Z,59.95
2017-07-10T12:25:01.298Z,60.9
2017-07-10T12:26:16.840Z,61.35
2017-07-10T12:27:32.338Z,61.94
2017-07-10T12:28:47.797Z,62.01
2017-07-10T12:30:03.738Z,63.26
2017-07-10T12:31:19.214Z,63.17
2017-07-10T12:32:34.685Z,65.01
2017-07-10T12:33:48.897Z,65.37
2017-07-10T12:35:04.807Z,67.02
2017-07-10T12:36:20.265Z,66.63
2017-07-10T12:37:36.182Z,66.72
2017-07-10T12:38:51.678Z,66.89
2017-07-10T12:40:07.506Z,66.99
2017-07-10T12:41:22.921Z,67.66
2017-07-10T12:42:38.500Z,67.76
2017-07-10T12:43:53.918Z,67.85
2017-07-10T12:45:09.624Z,68.44
2017-07-10T12:46:25.117Z,68.21
2017-07-10T12:47:39.286Z,68.5
2017-07-10T12:48:54.819Z,68.5
2017-07-10T12:50:10.698Z,69.47
2017-07-10T12:51:26.161Z,69.57
2017-07-10T12:52:41.631Z,70.15
2017-07-10T12:53:57.161Z,70.7
2017-07-10T12:55:12.844Z,70.98
2017-07-10T12:56:28.334Z,72.63
2017-07-10T12:57:43.754Z,71.89
2017-07-10T12:58:59.185Z,72.09
2017-07-10T13:00:14.922Z,72.77
2017-07-10T13:01:30.388Z,72.8
2017-07-10T13:02:46.059Z,72.02
2017-07-10T13:04:01.492Z,71.67
2017-07-10T13:05:17.350Z,71.48
2017-07-10T13:06:32.772Z,70.7
2017-07-10T13:07:47.932Z,69.76
2017-07-10T13:09:03.375Z,69.28
2017-07-10T13:10:19.099Z,68.79
2017-07-10T13:11:34.557Z,68.51
2017-07-10T13:12:49.977Z,68.89
2017-07-10T13:14:05.434Z,68.31
2017-07-10T13:15:21.161Z,68.12
2017-07-10T13:16:36.636Z,67.24
2017-07-10T13:17:52.138Z,67.14
2017-07-10T13:19:07.606Z,67.05
2017-07-10T13:20:23.354Z,67.34
2017-07-10T13:21:38.799Z,67.34
2017-07-10T13:22:54.495Z,67.34
2017-07-10T13:24:10.002Z,67.28
2017-07-10T13:25:25.719Z,66.99
2017-07-10T13:26:41.147Z,67.08
2017-07-10T13:27:54.037Z,66.6
2017-07-10T13:29:09.760Z,66.05
2017-07-10T13:30:25.240Z,65.75
2017-07-10T13:31:40.999Z,66.05
2017-07-10T13:32:56.507Z,65.75
2017-07-10T13:34:12.066Z,65.85
2017-07-10T13:35:27.521Z,65.72
2017-07-10T13:36:43.436Z,65.63
2017-07-10T13:37:58.871Z,66.3
2017-07-10T13:39:13.156Z,66.69
2017-07-10T13:40:28.676Z,66.69
2017-07-10T13:41:44.409Z,67.05
2017-07-10T13:42:59.919Z,67.34
2017-07-10T13:44:15.395Z,66.86
2017-07-10T13:45:31.041Z,67.21
2017-07-10T13:46:45.481Z,67.6
2017-07-10T13:48:01.133Z,67.89
2017-07-10T13:49:16.591Z,68.18
2017-07-10T13:50:30.725Z,68.28
2017-07-10T13:51:46.504Z,69.02
2017-07-10T13:53:01.945Z,68.92
2017-07-10T13:54:17.572Z,68.92
2017-07-10T13:55:33.065Z,69.7
2017-07-10T13:56:47.269Z,69.85
2017-07-10T13:58:02.963Z,70.25
2017-07-10T13:59:18.523Z,70.92
2017-07-10T14:00:33.987Z,71.31
2017-07-10T14:01:49.716Z,71.99
2017-07-10T14:03:05.249Z,71.99
2017-07-10T14:04:20.709Z,72.83
2017-07-10T14:05:36.169Z,72.83
2017-07-10T14:06:51.853Z,73.5
2017-07-10T14:08:07.391Z,73.41
2017-07-10T14:09:22.895Z,73.31
2017-07-10T14:10:38.428Z,73.41
2017-07-10T14:11:54.059Z,74.08
2017-07-10T14:13:09.741Z,73.6
2017-07-10T14:14:25.189Z,73.85
2017-07-10T14:15:40.654Z,73.79
2017-07-10T14:16:56.398Z,74.57
2017-07-10T14:18:12.253Z,74.15
2017-07-10T14:19:27.509Z,74.05
2017-07-10T14:20:43.007Z,73.37
2017-07-10T14:21:58.702Z,73.85
2017-07-10T14:23:13.777Z,75.56
2017-07-10T14:24:29.238Z,74.98
2017-07-10T14:25:44.851Z,74.69
2017-07-10T14:27:00.575Z,74.69
2017-07-10T14:28:16.120Z,75.56
2017-07-10T14:29:31.609Z,75.07
2017-07-10T14:30:47.204Z,75.85
2017-07-10T14:32:02.922Z,76.29
2017-07-10T14:33:18.598Z,77.36
2017-07-10T14:34:32.761Z,77.07
2017-07-10T14:35:48.183Z,76.68
2017-07-10T14:37:03.556Z,76.49
2017-07-10T14:38:19.034Z,76.68
2017-07-10T14:39:34.146Z,77.07
2017-07-10T14:40:49.764Z,76.87
2017-07-10T14:42:36.177Z,77.26
2017-07-10T14:43:51.621Z,77.17
2017-07-10T14:45:07.124Z,77.69
2017-07-10T14:46:22.814Z,76.97
2017-07-10T14:47:38.256Z,77.5
2017-07-10T14:48:53.938Z,77.59
2017-07-10T14:50:09.394Z,77.5
2017-07-10T14:51:25.120Z,77.2
2017-07-10T14:52:40.583Z,77.01
2017-07-10T14:53:56.056Z,77.4
2017-07-10T14:55:11.499Z,76.53
2017-07-10T14:56:27.444Z,76.28
2017-07-10T14:57:42.911Z,77.14
2017-07-10T14:58:58.615Z,76.95
2017-07-10T15:00:14.083Z,77.24
2017-07-10T15:01:29.811Z,77.24
2017-07-10T15:02:44.893Z,76.95
2017-07-10T15:04:00.302Z,77.14
2017-07-10T15:05:15.927Z,76.66
2017-07-10T15:06:31.717Z,76.86
2017-07-10T15:07:47.205Z,76.56
2017-07-10T15:09:02.701Z,76.37
2017-07-10T15:10:18.223Z,76.66
2017-07-10T15:11:34.147Z,76.46
2017-07-10T15:12:49.686Z,76.46
2017-07-10T15:14:05.100Z,76.08
2017-07-10T15:15:20.587Z,76.37
2017-07-10T15:16:35.026Z,76.56
2017-07-10T15:17:50.471Z,76.18
2017-07-10T15:19:05.932Z,75.89
2017-07-10T15:20:21.437Z,75.5
2017-07-10T15:21:37.168Z,75.6
2017-07-10T15:22:52.585Z,75.5
2017-07-10T15:24:05.468Z,75.89
2017-07-10T15:25:19.597Z,75.98
2017-07-10T15:26:35.307Z,75.5
2017-07-10T15:27:49.556Z,75.4
2017-07-10T15:29:05.029Z,74.92
2017-07-10T15:30:20.470Z,75.11
2017-07-10T15:31:36.338Z,75.02
2017-07-10T15:32:51.800Z,75.4
2017-07-10T15:34:05.838Z,74.73
2017-07-10T15:35:21.255Z,75.21
2017-07-10T15:36:34.089Z,74.96
2017-07-10T15:37:49.821Z,74.57
2017-07-10T15:39:05.343Z,74.43
2017-07-10T15:40:20.853Z,74.82
2017-07-10T15:41:36.394Z,74.82
2017-07-10T15:42:52.231Z,74.63
2017-07-10T15:44:21.164Z,74.43
2017-07-10T15:45:36.688Z,74.53
2017-07-10T15:46:52.606Z,74.59
2017-07-10T15:48:08.080Z,74.88
2017-07-10T15:49:23.810Z,75.27
2017-07-10T15:50:39.594Z,75.85
2017-07-10T15:51:55.332Z,75.46
2017-07-10T15:53:11.004Z,75.56
2017-07-10T15:54:26.921Z,75.56
2017-07-10T15:55:42.458Z,76.24
2017-07-10T15:56:58.187Z,76.24
2017-07-10T15:58:12.316Z,76.04
2017-07-10T15:59:28.024Z,76.62
2017-07-10T16:00:43.671Z,76.72
2017-07-10T16:01:59.353Z,76.72
2017-07-10T16:03:13.693Z,76.82
2017-07-10T16:04:29.314Z,76.72
2017-07-10T16:05:44.831Z,76.53
2017-07-10T16:07:00.537Z,76.24
2017-07-10T16:08:16.353Z,76.24
2017-07-10T16:09:32.045Z,75.98
2017-07-10T16:10:47.800Z,75.46
2017-07-10T16:12:03.261Z,75.75
2017-07-10T16:13:18.774Z,75.95
2017-07-10T16:14:34.401Z,75.56
2017-07-10T16:15:50.155Z,76.04
2017-07-10T16:17:05.818Z,76.24
2017-07-10T16:18:21.226Z,76.14